Time;durP1;ratioP1;P1;durP2;ratioP2;P2;SDS_P1;SDS_P2;PMS_P1;PMS_P2;Temp;Humidity;BMP_temperature;BMP_pressure;BME280_temperature;BME280_humidity;BME280_pressure;Samples;Min_cycle;Max_cycle;Signal;HPM_P1;HPM_P2
2021/12/19 00:00:16;;;;;;;33.37;16.20;;;5.70;99.90;;;;;;5115588;28;20586;-48
2021/12/19 00:10:56;;;;;;;35.90;16.90;;;5.70;99.90;;;;;;5115739;28;20537;-49
2021/12/19 00:13:25;;;;;;;38.77;17.00;;;5.70;99.90;;;;;;5115214;28;20725;-49
2021/12/19 00:15:52;;;;;;;30.50;15.07;;;5.70;99.90;;;;;;5096674;28;20171;-47
2021/12/19 00:18:18;;;;;;;29.97;15.80;;;5.80;99.90;;;;;;5114885;28;20272;-49
2021/12/19 00:20:43;;;;;;;33.43;15.60;;;5.70;99.90;;;;;;5096664;28;20212;-49
2021/12/19 00:23:10;;;;;;;32.17;15.57;;;5.80;99.90;;;;;;5079799;28;20212;-49
2021/12/19 00:25:35;;;;;;;33.37;16.33;;;5.70;99.90;;;;;;5097371;28;20185;-50
2021/12/19 00:28:01;;;;;;;31.83;15.93;;;5.70;99.90;;;;;;5114167;28;20662;-48
2021/12/19 00:30:26;;;;;;;31.10;15.73;;;5.80;99.90;;;;;;5115048;28;20542;-48
2021/12/19 00:32:52;;;;;;;32.60;15.07;;;5.80;99.90;;;;;;5114502;28;20192;-47
2021/12/19 00:35:19;;;;;;;30.67;15.33;;;5.80;99.90;;;;;;5114532;28;20241;-47
2021/12/19 00:37:44;;;;;;;32.33;15.40;;;5.80;99.90;;;;;;5114449;28;20169;-46
2021/12/19 00:40:11;;;;;;;34.53;15.57;;;5.70;99.90;;;;;;5114740;28;20184;-48
2021/12/19 00:42:37;;;;;;;36.40;16.40;;;5.80;99.90;;;;;;5114473;28;20562;-48
2021/12/19 00:45:15;;;;;;;37.60;16.00;;;5.70;99.90;;;;;;5114241;28;20190;-48
2021/12/19 00:47:45;;;;;;;34.53;16.60;;;5.70;99.90;;;;;;5096065;28;20202;-47
2021/12/19 00:50:12;;;;;;;39.10;17.77;;;5.70;99.90;;;;;;5114378;28;20178;-46
2021/12/19 00:52:38;;;;;;;37.23;17.03;;;5.80;99.90;;;;;;5114345;28;20209;-47
2021/12/19 00:55:05;;;;;;;36.23;17.00;;;5.80;99.90;;;;;;5114463;28;20241;-48
2021/12/19 00:57:30;;;;;;;37.03;16.80;;;5.80;99.90;;;;;;5114370;28;20201;-48
2021/12/19 00:59:56;;;;;;;42.83;18.67;;;5.80;99.90;;;;;;5096158;28;20622;-48
2021/12/19 01:02:22;;;;;;;39.90;17.77;;;5.80;99.90;;;;;;5114172;28;20205;-48
2021/12/19 01:04:48;;;;;;;40.00;18.40;;;5.80;99.90;;;;;;5114079;28;20356;-49
2021/12/19 01:07:13;;;;;;;43.07;18.27;;;5.80;99.90;;;;;;5114184;28;20228;-48
2021/12/19 01:09:39;;;;;;;37.77;17.37;;;5.80;99.90;;;;;;5095759;28;20643;-48
2021/12/19 01:12:09;;;;;;;44.50;19.40;;;5.80;99.90;;;;;;5114146;28;20248;-48
2021/12/19 01:14:36;;;;;;;44.00;18.53;;;5.80;99.90;;;;;;5095944;28;20171;-47
2021/12/19 01:17:02;;;;;;;38.43;16.93;;;5.80;99.90;;;;;;5113860;28;20181;-47
2021/12/19 01:19:27;;;;;;;43.17;18.67;;;5.80;99.90;;;;;;5095598;28;20198;-48
2021/12/19 01:21:53;;;;;;;42.60;18.97;;;5.80;99.90;;;;;;5114051;28;20663;-48
2021/12/19 01:24:19;;;;;;;41.60;18.63;;;5.80;99.90;;;;;;5113858;28;20635;-47
2021/12/19 01:26:44;;;;;;;42.73;18.93;;;5.80;99.90;;;;;;5113831;28;20171;-48
2021/12/19 01:29:11;;;;;;;46.60;19.87;;;5.80;99.90;;;;;;5113688;28;20196;-48
2021/12/19 01:31:36;;;;;;;44.87;18.37;;;5.90;99.90;;;;;;5078654;28;20654;-48
2021/12/19 01:34:02;;;;;;;40.73;18.83;;;5.80;99.90;;;;;;5113715;28;20167;-47
2021/12/19 01:36:28;;;;;;;40.80;18.63;;;5.90;99.90;;;;;;5113955;28;20180;-47
2021/12/19 01:38:54;;;;;;;44.60;19.03;;;5.80;99.90;;;;;;5096337;28;20644;-49
2021/12/19 01:41:20;;;;;;;41.23;19.07;;;5.90;99.90;;;;;;5117921;28;20175;-48
2021/12/19 01:43:45;;;;;;;39.40;17.93;;;5.90;99.90;;;;;;5099688;28;20184;-48
2021/12/19 01:46:12;;;;;;;45.53;17.40;;;5.90;99.90;;;;;;5117793;28;20632;-47
2021/12/19 01:48:38;;;;;;;40.53;18.17;;;5.90;99.90;;;;;;5117626;28;20775;-48
2021/12/19 01:51:04;;;;;;;41.27;16.97;;;5.80;99.90;;;;;;5118057;28;20170;-47
2021/12/19 01:53:31;;;;;;;43.53;17.63;;;5.90;99.90;;;;;;5117542;28;20198;-48
2021/12/19 01:55:56;;;;;;;37.83;16.93;;;5.90;99.90;;;;;;5117742;28;20175;-47
2021/12/19 01:58:22;;;;;;;39.53;17.40;;;5.90;99.90;;;;;;5099291;28;20709;-47
2021/12/19 02:00:52;;;;;;;40.80;17.73;;;5.90;99.90;;;;;;5117884;28;20609;-49
2021/12/19 02:03:19;;;;;;;41.37;17.73;;;5.90;99.90;;;;;;5117625;28;20629;-48
2021/12/19 02:05:45;;;;;;;46.87;18.43;;;5.90;99.90;;;;;;5099216;28;20667;-46
2021/12/19 02:08:11;;;;;;;42.63;19.23;;;5.90;99.90;;;;;;5117369;28;20195;-48
2021/12/19 02:10:38;;;;;;;41.90;18.80;;;5.90;99.90;;;;;;5117881;28;20166;-47
2021/12/19 02:13:06;;;;;;;40.23;17.90;;;5.90;99.90;;;;;;5117578;28;20201;-48
2021/12/19 02:15:32;;;;;;;48.17;19.27;;;5.90;99.90;;;;;;5099205;28;20553;-49
2021/12/19 02:18:02;;;;;;;48.90;18.63;;;5.90;99.90;;;;;;5117235;28;20198;-48
2021/12/19 02:20:37;;;;;;;40.17;17.20;;;5.90;99.90;;;;;;5099581;28;20211;-49
2021/12/19 02:23:04;;;;;;;39.73;17.90;;;5.90;99.90;;;;;;5117306;28;20289;-49
2021/12/19 02:25:31;;;;;;;42.73;18.40;;;5.90;99.90;;;;;;5099119;28;20578;-49
2021/12/19 02:27:57;;;;;;;41.87;18.30;;;5.90;99.90;;;;;;5117407;28;20206;-48
2021/12/19 02:30:23;;;;;;;38.37;18.00;;;5.90;99.90;;;;;;5117315;28;20183;-48
2021/12/19 02:32:48;;;;;;;38.27;17.90;;;5.90;99.90;;;;;;5098658;28;20203;-50
2021/12/19 02:35:20;;;;;;;41.67;18.63;;;5.90;99.90;;;;;;5116992;28;20193;-48
2021/12/19 02:48:17;;;;;;;41.13;18.13;;;5.90;99.90;;;;;;5116903;28;20247;-43
2021/12/19 02:50:50;;;;;;;36.83;17.47;;;5.90;99.90;;;;;;5116139;28;20188;-43
2021/12/19 02:53:37;;;;;;;39.50;16.67;;;5.90;99.90;;;;;;5116608;28;20194;-43
2021/12/19 02:56:09;;;;;;;40.13;16.47;;;5.90;99.90;;;;;;5115568;28;20188;-43
2021/12/19 02:58:36;;;;;;;41.67;17.73;;;5.90;99.90;;;;;;5098203;28;20171;-44
2021/12/19 03:01:06;;;;;;;35.07;15.80;;;5.90;99.90;;;;;;5098118;28;20186;-42
2021/12/19 03:03:31;;;;;;;37.37;15.40;;;5.90;99.90;;;;;;5116599;28;20192;-44
2021/12/19 03:05:57;;;;;;;36.80;17.07;;;5.90;99.90;;;;;;5116351;28;20179;-44
2021/12/19 03:08:23;;;;;;;36.80;17.17;;;5.90;99.90;;;;;;5116533;28;20305;-44
2021/12/19 03:18:30;;;;;;;36.67;15.80;;;5.90;99.90;;;;;;5116613;28;20541;-45
2021/12/19 03:20:56;;;;;;;35.07;15.40;;;5.90;99.90;;;;;;5116273;28;20192;-43
2021/12/19 03:23:22;;;;;;;28.97;14.70;;;5.90;99.90;;;;;;5115928;28;20697;-42
2021/12/19 03:25:48;;;;;;;36.33;15.47;;;5.90;99.90;;;;;;5115927;28;20212;-44
2021/12/19 03:28:15;;;;;;;34.40;15.60;;;5.90;99.90;;;;;;5116110;28;20202;-42
2021/12/19 03:30:47;;;;;;;33.77;14.63;;;5.90;99.90;;;;;;5097623;28;20182;-48
2021/12/19 03:33:15;;;;;;;32.77;15.50;;;5.90;99.90;;;;;;5097485;28;20205;-46
2021/12/19 03:35:41;;;;;;;39.87;15.93;;;5.90;99.90;;;;;;5115764;28;20187;-47
2021/12/19 03:38:09;;;;;;;34.83;14.53;;;6.00;99.90;;;;;;5097461;28;20636;-46
2021/12/19 03:40:36;;;;;;;37.57;16.07;;;5.90;99.90;;;;;;5115624;28;20233;-47
2021/12/19 03:43:09;;;;;;;36.57;15.07;;;5.90;99.90;;;;;;5115614;28;20219;-49
2021/12/19 03:45:36;;;;;;;33.30;15.97;;;5.90;99.90;;;;;;5115786;28;20211;-48
2021/12/19 03:48:04;;;;;;;34.73;15.47;;;6.00;99.90;;;;;;5115435;28;20204;-48
2021/12/19 03:50:32;;;;;;;32.47;14.97;;;6.00;99.90;;;;;;5115415;28;20178;-49
2021/12/19 03:52:59;;;;;;;36.60;15.27;;;5.90;99.90;;;;;;5097762;28;20210;-48
2021/12/19 03:55:27;;;;;;;31.77;14.87;;;5.90;99.90;;;;;;5097153;28;20182;-50
2021/12/19 03:57:52;;;;;;;36.00;15.77;;;6.00;99.90;;;;;;5115403;28;20209;-50
2021/12/19 04:00:24;;;;;;;27.97;13.10;;;6.00;99.90;;;;;;5115826;28;20182;-48
2021/12/19 04:02:54;;;;;;;31.93;13.67;;;5.90;99.90;;;;;;5114867;28;20198;-46
2021/12/19 04:05:20;;;;;;;33.40;13.57;;;6.00;99.90;;;;;;5115443;28;20172;-49
2021/12/19 04:07:46;;;;;;;31.70;13.57;;;6.00;99.90;;;;;;5115336;28;20206;-49
2021/12/19 04:10:12;;;;;;;28.93;13.37;;;6.00;99.90;;;;;;5096854;28;20173;-49
2021/12/19 04:12:38;;;;;;;31.73;13.90;;;6.00;99.90;;;;;;5096736;28;20208;-47
2021/12/19 04:15:06;;;;;;;31.23;12.93;;;5.90;99.90;;;;;;5114978;28;20181;-48
2021/12/19 04:17:33;;;;;;;30.57;13.77;;;6.00;99.90;;;;;;5114900;28;20662;-49
2021/12/19 04:19:58;;;;;;;24.83;12.97;;;6.00;99.90;;;;;;5096589;28;20186;-49
2021/12/19 04:22:24;;;;;;;26.23;12.93;;;6.00;99.90;;;;;;5096576;28;20204;-48
2021/12/19 04:24:50;;;;;;;28.47;13.63;;;6.00;99.90;;;;;;5115033;28;20183;-48
2021/12/19 04:27:16;;;;;;;28.87;13.57;;;6.00;99.90;;;;;;5096387;28;20183;-48
2021/12/19 04:29:42;;;;;;;28.90;13.37;;;6.00;99.90;;;;;;5096356;28;20204;-48
2021/12/19 04:32:08;;;;;;;26.10;13.00;;;6.00;99.90;;;;;;5114838;28;20202;-47
2021/12/19 04:34:34;;;;;;;28.63;13.10;;;6.00;99.90;;;;;;5114862;28;20184;-48
2021/12/19 04:37:08;;;;;;;29.03;12.70;;;6.00;99.90;;;;;;5114919;28;20247;-48
2021/12/19 05:14:45;;;;;;;20.33;10.53;;;6.00;99.90;;;;;;5075665;28;20199;-47
2021/12/19 05:17:17;;;;;;;24.13;11.80;;;6.00;99.90;;;;;;5095758;28;20173;-47
2021/12/19 05:19:47;;;;;;;23.50;11.00;;;6.00;99.90;;;;;;5095712;28;20174;-47
2021/12/19 05:22:13;;;;;;;22.17;11.40;;;6.00;99.90;;;;;;5113980;28;20199;-48
2021/12/19 05:25:00;;;;;;;22.17;11.53;;;6.00;99.90;;;;;;5095633;28;20228;-47
2021/12/19 05:27:26;;;;;;;22.63;11.33;;;6.00;99.90;;;;;;5095389;28;20205;-46
2021/12/19 05:29:52;;;;;;;21.97;10.53;;;6.00;99.90;;;;;;5113728;28;20220;-47
2021/12/19 05:32:17;;;;;;;19.83;10.50;;;6.00;99.90;;;;;;5113948;28;20200;-48
2021/12/19 05:34:43;;;;;;;26.53;11.27;;;6.00;99.90;;;;;;5113804;28;20202;-48
2021/12/19 05:45:21;;;;;;;26.60;12.83;;;6.00;99.90;;;;;;5113713;28;20199;-46
2021/12/19 05:47:49;;;;;;;25.10;12.37;;;6.00;99.90;;;;;;5113890;28;20202;-48
2021/12/19 05:50:17;;;;;;;27.47;13.67;;;6.00;99.90;;;;;;5113637;28;20182;-48
2021/12/19 05:52:43;;;;;;;25.77;14.03;;;6.00;99.90;;;;;;5113656;28;20198;-48
2021/12/19 05:55:09;;;;;;;28.53;14.07;;;6.00;99.90;;;;;;5113546;28;20175;-48
2021/12/19 05:57:35;;;;;;;26.83;14.03;;;6.00;99.90;;;;;;5113589;28;20717;-46
2021/12/19 06:00:08;;;;;;;20.63;11.67;;;6.10;99.90;;;;;;5113835;28;20207;-46
2021/12/19 06:02:35;;;;;;;21.00;10.63;;;6.00;99.90;;;;;;5095250;28;20555;-47
2021/12/19 06:05:00;;;;;;;23.27;10.73;;;6.00;99.90;;;;;;5113494;28;20183;-48
2021/12/19 06:07:26;;;;;;;23.23;10.70;;;6.00;99.90;;;;;;5113699;28;20195;-47
2021/12/19 06:09:52;;;;;;;18.77;9.00;;;6.00;99.90;;;;;;5113568;28;20175;-49
2021/12/19 06:12:17;;;;;;;19.30;9.10;;;6.00;99.90;;;;;;5113360;28;20620;-46
2021/12/19 06:14:43;;;;;;;18.33;9.43;;;6.00;99.90;;;;;;5113706;28;20188;-47
2021/12/19 06:17:09;;;;;;;18.13;9.13;;;6.00;99.90;;;;;;5113441;28;20609;-48
2021/12/19 06:19:36;;;;;;;20.10;10.13;;;6.00;99.90;;;;;;5095117;28;20239;-47
2021/12/19 06:22:04;;;;;;;21.23;9.00;;;6.00;99.90;;;;;;5113480;28;20200;-48
2021/12/19 06:24:31;;;;;;;18.73;8.40;;;6.00;99.90;;;;;;5113721;28;20252;-47
2021/12/19 06:26:58;;;;;;;22.07;11.10;;;6.00;99.90;;;;;;5117768;28;20228;-47
2021/12/19 06:29:25;;;;;;;25.57;11.43;;;6.00;99.90;;;;;;5117098;28;20227;-48
2021/12/19 06:31:51;;;;;;;25.57;12.83;;;6.00;99.90;;;;;;5098814;28;20547;-48
2021/12/19 06:34:16;;;;;;;24.67;11.33;;;6.00;99.90;;;;;;5098842;28;20181;-47
2021/12/19 06:36:42;;;;;;;22.70;9.83;;;6.00;99.90;;;;;;5116948;28;20179;-48
2021/12/19 06:39:08;;;;;;;20.83;9.20;;;6.00;99.90;;;;;;5117192;28;20187;-48
2021/12/19 06:41:36;;;;;;;21.73;9.40;;;6.00;99.90;;;;;;5099282;28;20205;-47
2021/12/19 06:44:02;;;;;;;19.97;8.67;;;6.00;99.90;;;;;;5116978;28;20183;-46
2021/12/19 06:46:28;;;;;;;23.63;8.93;;;6.00;99.90;;;;;;5098598;28;20644;-48
2021/12/19 06:48:54;;;;;;;15.43;7.50;;;6.00;99.90;;;;;;5116923;28;20236;-48
2021/12/19 06:51:21;;;;;;;14.00;7.03;;;6.00;99.90;;;;;;5116941;28;20590;-46
2021/12/19 06:53:47;;;;;;;15.83;7.37;;;5.90;99.90;;;;;;5098495;28;20204;-48
2021/12/19 06:56:13;;;;;;;18.97;8.57;;;6.00;99.90;;;;;;5116632;28;20216;-47
2021/12/19 06:58:39;;;;;;;16.57;7.67;;;5.90;99.90;;;;;;5116674;28;20185;-48
2021/12/19 07:01:05;;;;;;;16.10;7.53;;;5.90;99.90;;;;;;5116722;28;20171;-47
2021/12/19 07:03:30;;;;;;;14.10;7.23;;;5.90;99.90;;;;;;5117220;28;20203;-48
2021/12/19 07:05:56;;;;;;;15.43;7.60;;;5.90;99.90;;;;;;5116468;28;20229;-47
2021/12/19 07:08:22;;;;;;;14.70;7.23;;;6.00;99.90;;;;;;5098024;28;20690;-48
2021/12/19 07:10:49;;;;;;;14.53;7.93;;;5.90;99.90;;;;;;5098106;28;20268;-49
2021/12/19 07:13:20;;;;;;;19.60;8.87;;;6.20;99.90;;;;;;5116451;28;20183;-46
2021/12/19 07:15:48;;;;;;;20.27;9.27;;;5.90;99.90;;;;;;5098486;28;20269;-49
2021/12/19 07:18:13;;;;;;;19.53;9.30;;;5.90;99.90;;;;;;5117089;28;20177;-48
2021/12/19 07:20:43;;;;;;;16.70;8.07;;;5.90;99.90;;;;;;5116199;28;20187;-46
2021/12/19 07:23:18;;;;;;;18.73;9.13;;;5.90;99.90;;;;;;5097690;28;20206;-48
2021/12/19 07:25:44;;;;;;;18.57;9.70;;;5.90;99.90;;;;;;5116432;28;20622;-48
2021/12/19 07:28:10;;;;;;;23.63;9.40;;;5.90;99.90;;;;;;5116264;28;20208;-47
2021/12/19 07:30:37;;;;;;;17.17;9.33;;;5.90;99.90;;;;;;5097718;28;20187;-47
2021/12/19 07:33:08;;;;;;;18.80;8.77;;;5.90;99.90;;;;;;5115940;28;20190;-48
2021/12/19 07:35:37;;;;;;;22.00;8.97;;;5.90;99.90;;;;;;5097471;28;20588;-47
2021/12/19 07:38:05;;;;;;;20.93;8.53;;;5.90;99.90;;;;;;5114789;28;20173;-48
2021/12/19 07:40:39;;;;;;;23.00;9.00;;;5.90;99.90;;;;;;5097535;28;20182;-48
2021/12/19 07:43:10;;;;;;;22.53;8.37;;;5.90;99.90;;;;;;5115640;28;20200;-47
2021/12/19 07:45:36;;;;;;;23.07;9.00;;;5.90;99.90;;;;;;5097328;28;20202;-46
2021/12/19 07:48:03;;;;;;;21.83;8.83;;;5.90;99.90;;;;;;5115839;28;20267;-49
2021/12/19 07:50:29;;;;;;;22.27;9.73;;;5.90;99.90;;;;;;5115795;28;20208;-47
2021/12/19 07:52:56;;;;;;;23.83;10.23;;;5.90;99.90;;;;;;5097648;28;20190;-47
2021/12/19 07:55:23;;;;;;;27.07;10.93;;;5.90;99.90;;;;;;5116070;28;20647;-48
2021/12/19 07:57:49;;;;;;;23.53;10.30;;;5.90;99.90;;;;;;5115353;28;20239;-46
2021/12/19 08:00:16;;;;;;;20.57;9.10;;;5.90;99.90;;;;;;5116231;28;20256;-48
2021/12/19 08:02:42;;;;;;;26.73;9.80;;;5.90;99.90;;;;;;5115527;28;20209;-48
2021/12/19 08:05:09;;;;;;;19.30;8.80;;;5.90;99.90;;;;;;5097040;28;20232;-48
2021/12/19 08:07:35;;;;;;;21.70;8.80;;;5.90;99.90;;;;;;5115198;28;20177;-47
2021/12/19 08:12:34;;;;;;;22.70;8.37;;;5.90;99.90;;;;;;5115300;28;20187;-48
2021/12/19 08:15:00;;;;;;;23.90;9.03;;;5.90;99.90;;;;;;5096898;28;20173;-47
2021/12/19 08:17:26;;;;;;;17.83;8.40;;;5.90;99.90;;;;;;5096785;28;20541;-48
2021/12/19 08:19:52;;;;;;;19.07;8.30;;;5.90;99.90;;;;;;5114971;28;20515;-48
2021/12/19 08:22:19;;;;;;;16.07;7.27;;;5.90;99.90;;;;;;5114987;28;20205;-47
2021/12/19 08:24:46;;;;;;;23.17;8.70;;;5.90;99.90;;;;;;5115520;28;20194;-45
2021/12/19 08:27:12;;;;;;;14.87;7.07;;;5.90;99.90;;;;;;5114989;28;20183;-45
2021/12/19 08:29:38;;;;;;;15.90;6.33;;;5.90;99.90;;;;;;5096434;28;20213;-44
2021/12/19 08:32:04;;;;;;;14.27;6.13;;;5.90;99.90;;;;;;5096421;28;20199;-45
2021/12/19 08:34:30;;;;;;;11.77;5.63;;;5.90;99.90;;;;;;5114869;28;20170;-45
2021/12/19 08:36:56;;;;;;;12.07;5.43;;;5.90;99.90;;;;;;5114660;28;20171;-44
2021/12/19 08:39:22;;;;;;;12.10;6.43;;;5.90;99.90;;;;;;5114658;28;20181;-45
2021/12/19 08:41:48;;;;;;;13.03;6.10;;;6.00;99.90;;;;;;5114537;28;20401;-45
2021/12/19 08:44:14;;;;;;;16.03;5.93;;;5.90;99.90;;;;;;5114346;28;20217;-45
2021/12/19 08:46:41;;;;;;;14.70;5.87;;;5.90;99.90;;;;;;5115071;28;20204;-45
2021/12/19 08:49:08;;;;;;;13.43;6.00;;;6.00;99.90;;;;;;5113906;28;20207;-45
2021/12/19 08:54:02;;;;;;;13.50;5.83;;;6.00;99.90;;;;;;5091130;28;20220;-48
2021/12/19 08:56:28;;;;;;;12.83;5.97;;;6.00;99.90;;;;;;5094162;28;20677;-47
2021/12/19 08:58:55;;;;;;;15.57;7.33;;;6.00;99.90;;;;;;5092748;28;20191;-47
2021/12/19 09:01:21;;;;;;;16.40;7.17;;;6.00;99.90;;;;;;5114541;28;20211;-48
2021/12/19 09:03:46;;;;;;;17.00;7.27;;;6.10;99.90;;;;;;5114202;28;20185;-45
2021/12/19 09:06:13;;;;;;;15.60;7.27;;;6.00;99.90;;;;;;5114461;28;20185;-47
2021/12/19 09:08:39;;;;;;;21.73;9.00;;;6.10;99.90;;;;;;5095823;28;20200;-45
2021/12/19 09:11:05;;;;;;;18.13;8.13;;;6.10;99.90;;;;;;5114467;28;20178;-47
2021/12/19 09:13:30;;;;;;;20.27;8.57;;;6.10;99.90;;;;;;5114286;28;20199;-47
2021/12/19 09:15:56;;;;;;;20.30;9.03;;;6.10;99.90;;;;;;5114069;28;20178;-46
2021/12/19 09:18:22;;;;;;;17.80;8.17;;;6.10;99.90;;;;;;5114099;28;20260;-48
2021/12/19 09:20:49;;;;;;;17.73;7.47;;;6.10;99.90;;;;;;5114022;28;20177;-47
2021/12/19 09:23:22;;;;;;;17.30;7.30;;;6.20;99.90;;;;;;5095835;28;20211;-47
2021/12/19 09:25:49;;;;;;;20.27;7.40;;;6.10;99.90;;;;;;5095455;28;20181;-47
2021/12/19 09:28:15;;;;;;;12.50;6.10;;;6.20;99.90;;;;;;5114081;28;20193;-47
2021/12/19 09:30:42;;;;;;;17.80;8.03;;;6.10;99.90;;;;;;5114137;28;20234;-48
2021/12/19 09:33:08;;;;;;;14.73;8.00;;;6.20;99.90;;;;;;5095563;28;20197;-48
2021/12/19 09:35:34;;;;;;;18.17;7.27;;;6.20;99.90;;;;;;5114151;28;20189;-49
2021/12/19 09:38:22;;;;;;;17.13;8.93;;;6.20;99.90;;;;;;5114337;28;20195;-48
2021/12/19 09:40:48;;;;;;;15.83;7.87;;;6.20;99.90;;;;;;5113840;28;20182;-47
2021/12/19 09:45:59;;;;;;;19.33;8.93;;;6.30;99.90;;;;;;5114378;28;20196;-47
2021/12/19 09:48:26;;;;;;;14.60;8.20;;;6.30;99.90;;;;;;5095432;28;20195;-48
2021/12/19 09:50:53;;;;;;;15.37;7.23;;;6.30;99.90;;;;;;5113972;28;20262;-47
2021/12/19 09:53:19;;;;;;;16.77;8.70;;;6.30;99.90;;;;;;5113600;28;20750;-48
2021/12/19 09:55:44;;;;;;;16.63;8.47;;;6.30;99.90;;;;;;5113678;28;20209;-47
2021/12/19 09:58:10;;;;;;;14.33;7.70;;;6.30;99.90;;;;;;5113624;28;20202;-47
2021/12/19 10:00:36;;;;;;;13.13;7.43;;;6.30;99.90;;;;;;5115717;28;20691;-49
2021/12/19 10:03:02;;;;;;;14.63;7.70;;;6.40;99.90;;;;;;5117896;28;20261;-48
2021/12/19 10:05:28;;;;;;;17.23;10.03;;;6.40;99.90;;;;;;5100300;28;20565;-48
2021/12/19 10:07:58;;;;;;;16.13;7.30;;;6.40;99.90;;;;;;5099763;28;20192;-47
2021/12/19 10:10:59;;;;;;;18.53;8.20;;;6.40;99.90;;;;;;5118727;28;20158;-43
2021/12/19 10:13:33;;;;;;;16.77;7.83;;;6.40;99.90;;;;;;5097128;28;20212;-40
2021/12/19 10:15:59;;;;;;;16.27;7.47;;;6.40;99.90;;;;;;5118044;28;20168;-41
2021/12/19 10:18:27;;;;;;;16.00;7.10;;;6.40;99.90;;;;;;5117456;28;20179;-43
2021/12/19 10:20:57;;;;;;;15.17;6.73;;;6.40;99.90;;;;;;5082533;28;20279;-40
2021/12/19 10:23:36;;;;;;;10.87;6.27;;;6.40;99.90;;;;;;5118152;28;20211;-43
2021/12/19 10:26:07;;;;;;;13.30;6.43;;;6.40;99.90;;;;;;5117696;28;20165;-42
2021/12/19 10:28:47;;;;;;;16.63;7.10;;;6.40;99.90;;;;;;5117336;28;20229;-42
2021/12/19 10:31:12;;;;;;;15.67;6.50;;;6.40;99.90;;;;;;5099284;28;20169;-39
2021/12/19 10:33:38;;;;;;;11.87;6.53;;;6.40;99.90;;;;;;5117209;28;20215;-41
2021/12/19 10:36:06;;;;;;;12.17;6.43;;;6.40;99.90;;;;;;5117089;28;20209;-44
2021/12/19 10:38:37;;;;;;;10.93;5.90;;;6.40;99.90;;;;;;5099613;28;20179;-42
2021/12/19 10:41:11;;;;;;;14.43;6.50;;;6.40;99.90;;;;;;5116860;28;20196;-43
2021/12/19 10:43:56;;;;;;;13.03;6.67;;;6.40;99.90;;;;;;5098592;28;20221;-42
2021/12/19 10:46:30;;;;;;;17.47;6.90;;;6.40;99.90;;;;;;5116885;28;20257;-42
2021/12/19 10:48:58;;;;;;;13.13;6.83;;;6.40;99.90;;;;;;5117065;28;20266;-41
2021/12/19 10:51:24;;;;;;;15.30;7.93;;;6.40;99.90;;;;;;5116734;28;20621;-41
2021/12/19 10:53:56;;;;;;;12.60;7.57;;;6.40;99.90;;;;;;5098504;28;20660;-43
2021/12/19 10:56:30;;;;;;;14.70;7.93;;;6.40;99.90;;;;;;5116720;28;20158;-40
2021/12/19 10:59:05;;;;;;;14.43;8.37;;;6.40;99.90;;;;;;5116746;28;20335;-41
2021/12/19 11:01:38;;;;;;;15.23;8.47;;;6.40;99.90;;;;;;5117173;28;20263;-41
2021/12/19 11:04:15;;;;;;;16.07;9.57;;;6.40;99.90;;;;;;5116571;28;20664;-40
2021/12/19 11:06:48;;;;;;;13.13;8.70;;;6.40;99.90;;;;;;5116496;28;20212;-41
2021/12/19 11:09:26;;;;;;;13.67;8.17;;;6.40;99.90;;;;;;5116954;28;20212;-43
2021/12/19 11:11:56;;;;;;;11.97;7.63;;;6.40;99.90;;;;;;5116041;28;20202;-43
2021/12/19 11:14:22;;;;;;;14.83;9.27;;;6.40;99.90;;;;;;5116658;28;20162;-41
2021/12/19 11:16:53;;;;;;;17.53;10.17;;;6.40;99.90;;;;;;5116572;28;20179;-39
2021/12/19 11:19:19;;;;;;;10.40;6.90;;;6.40;99.90;;;;;;5116788;28;20170;-41
2021/12/19 11:21:45;;;;;;;14.20;7.43;;;6.40;99.90;;;;;;5097890;28;20559;-40
2021/12/19 11:24:16;;;;;;;13.47;7.50;;;6.50;99.90;;;;;;5116451;28;20174;-43
2021/12/19 11:26:45;;;;;;;12.00;8.23;;;6.50;99.90;;;;;;5116436;28;20173;-42
2021/12/19 11:29:12;;;;;;;13.97;9.23;;;6.40;99.90;;;;;;5116017;28;20229;-43
2021/12/19 11:31:39;;;;;;;12.80;9.10;;;6.50;99.90;;;;;;5098577;28;20195;-42
2021/12/19 11:34:19;;;;;;;17.13;10.77;;;6.50;99.90;;;;;;5116055;28;20526;-43
2021/12/19 11:36:51;;;;;;;14.53;9.07;;;6.50;99.90;;;;;;5116228;28;20571;-40
2021/12/19 11:39:17;;;;;;;14.60;9.70;;;6.50;99.90;;;;;;5116226;28;20648;-40
2021/12/19 11:42:06;;;;;;;15.87;10.00;;;6.50;99.90;;;;;;5097575;28;20205;-42
2021/12/19 11:44:41;;;;;;;17.10;11.07;;;6.50;99.90;;;;;;5115862;28;20518;-44
2021/12/19 11:47:12;;;;;;;14.53;10.13;;;6.50;99.90;;;;;;5116018;28;20181;-43
2021/12/19 11:49:37;;;;;;;13.43;9.77;;;6.50;99.90;;;;;;5115645;28;20236;-44
2021/12/19 11:52:23;;;;;;;15.03;9.90;;;6.50;99.90;;;;;;5115531;28;20245;-43
2021/12/19 11:55:13;;;;;;;16.23;11.97;;;6.50;99.90;;;;;;5115578;28;20213;-42
2021/12/19 11:58:02;;;;;;;16.93;10.97;;;6.50;99.90;;;;;;5115510;28;20170;-44
2021/12/19 12:00:31;;;;;;;15.63;9.67;;;6.60;99.90;;;;;;5100550;28;20158;-42
2021/12/19 12:03:12;;;;;;;13.63;8.87;;;6.50;99.90;;;;;;5115286;28;20606;-42
2021/12/19 12:05:38;;;;;;;14.83;9.57;;;6.60;99.90;;;;;;5115608;28;20220;-44
2021/12/19 12:08:07;;;;;;;15.03;9.23;;;6.60;99.90;;;;;;5115527;28;20228;-44
2021/12/19 12:10:51;;;;;;;17.10;10.47;;;6.60;99.90;;;;;;5115499;28;20193;-44
2021/12/19 12:13:24;;;;;;;16.63;10.67;;;6.60;99.90;;;;;;5115089;28;20202;-44
2021/12/19 12:15:52;;;;;;;17.27;10.60;;;6.60;99.90;;;;;;5115776;28;20502;-42
2021/12/19 12:18:36;;;;;;;15.13;9.30;;;6.60;99.90;;;;;;5096835;28;20276;-40
2021/12/19 12:24:12;;;;;;;18.87;10.80;;;6.60;99.90;;;;;;5071632;28;20293;-45
2021/12/19 12:26:52;;;;;;;22.77;15.13;;;6.60;99.90;;;;;;5115169;28;20219;-44
2021/12/19 12:29:19;;;;;;;16.57;10.27;;;6.60;99.90;;;;;;5114908;28;20739;-44
2021/12/19 12:31:46;;;;;;;16.67;9.97;;;6.60;99.90;;;;;;5115217;28;20190;-44
2021/12/19 12:34:14;;;;;;;14.93;9.27;;;6.60;99.90;;;;;;5114969;28;20180;-44
2021/12/19 12:36:40;;;;;;;21.47;11.50;;;6.60;99.90;;;;;;5116219;28;20644;-40
2021/12/19 12:39:11;;;;;;;15.10;9.97;;;6.60;99.90;;;;;;5115337;28;20207;-42
2021/12/19 12:41:50;;;;;;;16.23;9.50;;;6.60;99.90;;;;;;5114977;28;20206;-45
2021/12/19 12:44:24;;;;;;;16.13;8.70;;;6.60;99.90;;;;;;5114983;28;20168;-40
2021/12/19 12:46:50;;;;;;;15.80;9.13;;;6.60;99.90;;;;;;5114816;28;20247;-41
2021/12/19 12:49:34;;;;;;;17.70;10.10;;;6.70;99.90;;;;;;5114623;28;20198;-43
2021/12/19 12:52:05;;;;;;;15.53;8.80;;;6.70;99.90;;;;;;5114612;28;20209;-41
2021/12/19 12:54:36;;;;;;;14.63;9.57;;;6.60;99.90;;;;;;5114740;28;20175;-40
2021/12/19 12:57:08;;;;;;;17.60;11.40;;;6.60;99.90;;;;;;5114734;28;20241;-41
2021/12/19 12:59:38;;;;;;;15.70;9.50;;;6.60;99.90;;;;;;5115138;28;20540;-47
2021/12/19 13:02:17;;;;;;;17.93;10.93;;;6.60;99.90;;;;;;5114262;28;20193;-47
2021/12/19 13:04:48;;;;;;;16.03;7.87;;;6.60;99.90;;;;;;5114577;28;20247;-48
2021/12/19 13:07:16;;;;;;;16.37;8.73;;;6.60;99.90;;;;;;5114502;28;20533;-47
2021/12/19 13:09:43;;;;;;;14.43;8.77;;;6.60;99.90;;;;;;5114078;28;20198;-47
2021/12/19 13:12:16;;;;;;;13.47;8.50;;;6.60;99.90;;;;;;5096098;28;20197;-48
2021/12/19 13:14:46;;;;;;;13.73;7.97;;;6.60;99.90;;;;;;5114218;28;20291;-48
2021/12/19 13:17:14;;;;;;;15.93;8.43;;;6.60;99.90;;;;;;5114038;28;20182;-47
2021/12/19 13:19:50;;;;;;;11.93;7.33;;;6.60;99.90;;;;;;5095691;28;20275;-45
2021/12/19 13:22:36;;;;;;;13.83;8.00;;;6.60;99.90;;;;;;5114235;28;20211;-49
2021/12/19 13:25:21;;;;;;;14.20;8.27;;;6.60;99.90;;;;;;5114287;28;20560;-49
2021/12/19 13:27:54;;;;;;;13.73;7.43;;;6.60;99.90;;;;;;5095650;28;20648;-47
2021/12/19 13:30:20;;;;;;;14.00;7.47;;;6.60;99.90;;;;;;5113879;28;20208;-48
2021/12/19 13:32:47;;;;;;;12.90;7.50;;;6.50;99.90;;;;;;5095643;28;20202;-47
2021/12/19 13:35:22;;;;;;;14.87;8.37;;;6.60;99.90;;;;;;5095564;28;20366;-46
2021/12/19 13:37:55;;;;;;;12.33;7.70;;;6.60;99.90;;;;;;5095685;28;20578;-46
2021/12/19 13:40:24;;;;;;;10.77;7.23;;;6.60;99.90;;;;;;5095587;28;20184;-47
2021/12/19 13:42:52;;;;;;;15.03;6.97;;;6.60;99.90;;;;;;5113941;28;20212;-48
2021/12/19 13:45:37;;;;;;;13.93;7.10;;;6.50;99.90;;;;;;5095637;28;20166;-47
2021/12/19 13:48:25;;;;;;;11.87;7.17;;;6.60;99.90;;;;;;5095392;28;20232;-47
2021/12/19 13:50:55;;;;;;;9.17;6.23;;;6.60;99.90;;;;;;5095485;28;20265;-46
2021/12/19 13:53:21;;;;;;;5.93;4.10;;;6.60;99.90;;;;;;5113488;28;20212;-47
2021/12/19 13:55:54;;;;;;;5.90;3.40;;;6.50;99.90;;;;;;5095408;28;20205;-48
2021/12/19 13:58:21;;;;;;;8.93;3.23;;;6.50;99.90;;;;;;5113836;28;20273;-48
2021/12/19 14:00:51;;;;;;;5.70;3.70;;;6.50;99.90;;;;;;5095365;28;20185;-47
2021/12/19 14:03:37;;;;;;;4.57;3.53;;;6.50;99.90;;;;;;5113530;28;20267;-48
2021/12/19 14:06:02;;;;;;;4.30;2.90;;;6.50;99.90;;;;;;5113836;28;20177;-45
2021/12/19 14:08:32;;;;;;;4.93;3.17;;;6.50;99.90;;;;;;5113476;28;20562;-48
2021/12/19 14:11:14;;;;;;;4.60;3.00;;;6.50;99.90;;;;;;5113440;28;20189;-47